sensor_id;sensor_type;location;lat;lon;timestamp;temperature;humidity
43862;DHT22;29510;52.140;5.034;2023-07-22T00:04:09;14.60;96.10
43862;DHT22;29510;52.140;5.034;2023-07-22T00:14:10;14.60;99.90
43862;DHT22;29510;52.140;5.034;2023-07-22T00:24:11;14.60;99.90
43862;DHT22;29510;52.140;5.034;2023-07-22T00:34:12;14.60;99.90
43862;DHT22;29510;52.140;5.034;2023-07-22T00:44:13;14.50;99.90
43862;DHT22;29510;52.140;5.034;2023-07-22T00:54:14;14.50;99.90
43862;DHT22;29510;52.140;5.034;2023-07-22T01:04:19;14.50;99.90
43862;DHT22;29510;52.140;5.034;2023-07-22T01:14:20;14.50;98.00
43862;DHT22;29510;52.140;5.034;2023-07-22T01:24:21;14.40;97.90
43862;DHT22;29510;52.140;5.034;2023-07-22T01:34:22;14.40;97.30
43862;DHT22;29510;52.140;5.034;2023-07-22T01:44:25;14.30;98.80
43862;DHT22;29510;52.140;5.034;2023-07-22T01:54:26;14.40;99.90
43862;DHT22;29510;52.140;5.034;2023-07-22T02:04:27;14.40;99.90
43862;DHT22;29510;52.140;5.034;2023-07-22T02:14:28;14.40;99.90
43862;DHT22;29510;52.140;5.034;2023-07-22T02:24:29;14.30;99.90
43862;DHT22;29510;52.140;5.034;2023-07-22T02:34:30;14.30;99.90
43862;DHT22;29510;52.140;5.034;2023-07-22T02:44:31;14.20;99.90
43862;DHT22;29510;52.140;5.034;2023-07-22T02:54:38;14.30;99.90
43862;DHT22;29510;52.140;5.034;2023-07-22T03:04:40;14.30;99.90
43862;DHT22;29510;52.140;5.034;2023-07-22T03:14:42;14.20;99.90
43862;DHT22;29510;52.140;5.034;2023-07-22T03:24:44;14.20;99.90
43862;DHT22;29510;52.140;5.034;2023-07-22T03:34:45;14.10;99.90
43862;DHT22;29510;52.140;5.034;2023-07-22T03:44:47;14.10;99.90
43862;DHT22;29510;52.140;5.034;2023-07-22T03:54:48;14.20;99.90
43862;DHT22;29510;52.140;5.034;2023-07-22T04:04:50;14.20;99.90
43862;DHT22;29510;52.140;5.034;2023-07-22T04:14:51;14.30;99.90
43862;DHT22;29510;52.140;5.034;2023-07-22T04:24:53;14.40;98.30
43862;DHT22;29510;52.140;5.034;2023-07-22T04:34:54;14.40;92.10
43862;DHT22;29510;52.140;5.034;2023-07-22T04:44:55;14.50;84.80
43862;DHT22;29510;52.140;5.034;2023-07-22T04:54:56;14.50;93.40
43862;DHT22;29510;52.140;5.034;2023-07-22T05:04:58;14.50;97.20
43862;DHT22;29510;52.140;5.034;2023-07-22T05:14:59;14.60;99.90
43862;DHT22;29510;52.140;5.034;2023-07-22T05:25:00;14.70;99.90
43862;DHT22;29510;52.140;5.034;2023-07-22T05:35:01;14.80;99.90
43862;DHT22;29510;52.140;5.034;2023-07-22T05:45:06;15.00;99.90
43862;DHT22;29510;52.140;5.034;2023-07-22T05:55:07;15.20;99.90
43862;DHT22;29510;52.140;5.034;2023-07-22T06:05:08;15.30;99.90
43862;DHT22;29510;52.140;5.034;2023-07-22T06:15:09;15.40;99.90
43862;DHT22;29510;52.140;5.034;2023-07-22T06:25:10;15.70;99.90
43862;DHT22;29510;52.140;5.034;2023-07-22T06:35:12;15.90;99.90
43862;DHT22;29510;52.140;5.034;2023-07-22T06:45:13;16.00;99.90
43862;DHT22;29510;52.140;5.034;2023-07-22T06:55:14;16.20;99.90
43862;DHT22;29510;52.140;5.034;2023-07-22T07:05:15;16.40;99.90
43862;DHT22;29510;52.140;5.034;2023-07-22T07:15:17;16.50;99.90
43862;DHT22;29510;52.140;5.034;2023-07-22T07:25:19;16.70;99.90
43862;DHT22;29510;52.140;5.034;2023-07-22T07:35:20;16.80;99.20
43862;DHT22;29510;52.140;5.034;2023-07-22T07:45:21;16.80;98.10
43862;DHT22;29510;52.140;5.034;2023-07-22T07:55:22;17.00;90.70
43862;DHT22;29510;52.140;5.034;2023-07-22T08:05:23;17.30;72.60
43862;DHT22;29510;52.140;5.034;2023-07-22T08:15:24;17.60;34.00
43862;DHT22;29510;52.140;5.034;2023-07-22T08:25:25;17.80;23.00
43862;DHT22;29510;52.140;5.034;2023-07-22T08:35:26;18.00;1.00
43862;DHT22;29510;52.140;5.034;2023-07-22T08:45:30;18.30;1.00
43862;DHT22;29510;52.140;5.034;2023-07-22T08:55:34;18.40;1.00
43862;DHT22;29510;52.140;5.034;2023-07-22T09:05:36;18.50;1.00
43862;DHT22;29510;52.140;5.034;2023-07-22T09:15:37;18.50;1.00
43862;DHT22;29510;52.140;5.034;2023-07-22T09:25:39;18.60;1.00
43862;DHT22;29510;52.140;5.034;2023-07-22T09:35:44;18.50;1.00
43862;DHT22;29510;52.140;5.034;2023-07-22T09:45:48;18.50;1.00
43862;DHT22;29510;52.140;5.034;2023-07-22T09:55:52;18.70;1.00
43862;DHT22;29510;52.140;5.034;2023-07-22T10:05:53;18.70;1.00
43862;DHT22;29510;52.140;5.034;2023-07-22T10:15:54;19.00;1.00
43862;DHT22;29510;52.140;5.034;2023-07-22T10:25:57;19.10;1.00
43862;DHT22;29510;52.140;5.034;2023-07-22T10:36:07;18.90;1.00
43862;DHT22;29510;52.140;5.034;2023-07-22T10:46:14;18.80;1.00
43862;DHT22;29510;52.140;5.034;2023-07-22T10:56:19;18.30;1.00
43862;DHT22;29510;52.140;5.034;2023-07-22T11:06:21;17.50;1.00
43862;DHT22;29510;52.140;5.034;2023-07-22T11:16:22;16.90;8.70
43862;DHT22;29510;52.140;5.034;2023-07-22T11:26:23;16.80;29.60
43862;DHT22;29510;52.140;5.034;2023-07-22T11:36:27;16.90;76.40
43862;DHT22;29510;52.140;5.034;2023-07-22T11:46:28;17.80;37.10
43862;DHT22;29510;52.140;5.034;2023-07-22T11:56:29;18.30;1.40
43862;DHT22;29510;52.140;5.034;2023-07-22T12:06:31;19.00;1.00
43862;DHT22;29510;52.140;5.034;2023-07-22T12:16:41;19.40;1.00
43862;DHT22;29510;52.140;5.034;2023-07-22T12:26:42;19.40;1.00
43862;DHT22;29510;52.140;5.034;2023-07-22T12:36:43;19.40;1.00
43862;DHT22;29510;52.140;5.034;2023-07-22T12:46:44;19.60;1.00
43862;DHT22;29510;52.140;5.034;2023-07-22T12:56:45;19.50;1.00
43862;DHT22;29510;52.140;5.034;2023-07-22T13:06:46;19.40;1.00
43862;DHT22;29510;52.140;5.034;2023-07-22T13:16:47;19.20;1.00
43862;DHT22;29510;52.140;5.034;2023-07-22T13:26:48;18.90;1.00
43862;DHT22;29510;52.140;5.034;2023-07-22T13:36:49;18.40;1.00
43862;DHT22;29510;52.140;5.034;2023-07-22T13:46:50;18.40;1.00
43862;DHT22;29510;52.140;5.034;2023-07-22T13:56:51;18.50;1.00
43862;DHT22;29510;52.140;5.034;2023-07-22T14:06:52;18.50;1.00
43862;DHT22;29510;52.140;5.034;2023-07-22T14:16:55;18.50;1.00
43862;DHT22;29510;52.140;5.034;2023-07-22T14:26:56;18.50;1.00
43862;DHT22;29510;52.140;5.034;2023-07-22T14:36:57;18.70;1.00
43862;DHT22;29510;52.140;5.034;2023-07-22T14:46:58;18.80;1.00
43862;DHT22;29510;52.140;5.034;2023-07-22T14:56:59;18.80;1.00
43862;DHT22;29510;52.140;5.034;2023-07-22T15:07:00;18.90;1.00
43862;DHT22;29510;52.140;5.034;2023-07-22T15:17:01;18.70;1.00
43862;DHT22;29510;52.140;5.034;2023-07-22T15:27:02;18.70;1.00
43862;DHT22;29510;52.140;5.034;2023-07-22T15:37:04;18.70;1.00
43862;DHT22;29510;52.140;5.034;2023-07-22T15:47:05;18.50;1.00
43862;DHT22;29510;52.140;5.034;2023-07-22T15:57:06;18.50;1.00
43862;DHT22;29510;52.140;5.034;2023-07-22T16:07:08;18.60;1.00
43862;DHT22;29510;52.140;5.034;2023-07-22T16:17:09;18.80;1.00
43862;DHT22;29510;52.140;5.034;2023-07-22T16:27:10;18.80;1.00
43862;DHT22;29510;52.140;5.034;2023-07-22T16:37:11;18.80;1.00
43862;DHT22;29510;52.140;5.034;2023-07-22T16:47:13;18.90;1.00
43862;DHT22;29510;52.140;5.034;2023-07-22T16:57:14;18.80;1.00
43862;DHT22;29510;52.140;5.034;2023-07-22T17:07:15;18.80;1.00
43862;DHT22;29510;52.140;5.034;2023-07-22T17:17:17;18.80;1.00
43862;DHT22;29510;52.140;5.034;2023-07-22T17:27:18;18.90;1.00
43862;DHT22;29510;52.140;5.034;2023-07-22T17:37:19;18.90;1.00
43862;DHT22;29510;52.140;5.034;2023-07-22T17:47:20;18.70;1.00
43862;DHT22;29510;52.140;5.034;2023-07-22T17:57:21;18.50;1.00
43862;DHT22;29510;52.140;5.034;2023-07-22T18:07:22;17.60;1.00
43862;DHT22;29510;52.140;5.034;2023-07-22T18:17:23;17.10;1.00
43862;DHT22;29510;52.140;5.034;2023-07-22T18:27:24;16.80;1.00
43862;DHT22;29510;52.140;5.034;2023-07-22T18:37:26;16.70;1.00
43862;DHT22;29510;52.140;5.034;2023-07-22T18:47:28;16.50;9.30
43862;DHT22;29510;52.140;5.034;2023-07-22T18:57:29;16.30;40.10
43862;DHT22;29510;52.140;5.034;2023-07-22T19:07:30;16.20;88.70
43862;DHT22;29510;52.140;5.034;2023-07-22T19:17:31;16.10;96.80
43862;DHT22;29510;52.140;5.034;2023-07-22T19:27:32;16.00;99.90
43862;DHT22;29510;52.140;5.034;2023-07-22T19:37:33;15.80;99.90
43862;DHT22;29510;52.140;5.034;2023-07-22T19:47:34;15.80;99.90
43862;DHT22;29510;52.140;5.034;2023-07-22T19:57:35;15.70;99.90
43862;DHT22;29510;52.140;5.034;2023-07-22T20:07:36;15.70;99.90
43862;DHT22;29510;52.140;5.034;2023-07-22T20:17:37;15.60;99.90
43862;DHT22;29510;52.140;5.034;2023-07-22T20:27:38;15.50;99.90
43862;DHT22;29510;52.140;5.034;2023-07-22T20:37:40;15.50;99.90
43862;DHT22;29510;52.140;5.034;2023-07-22T20:47:41;15.50;99.90
43862;DHT22;29510;52.140;5.034;2023-07-22T20:57:42;15.40;99.90
43862;DHT22;29510;52.140;5.034;2023-07-22T21:07:43;15.40;99.90
43862;DHT22;29510;52.140;5.034;2023-07-22T21:17:44;15.40;99.90
43862;DHT22;29510;52.140;5.034;2023-07-22T21:27:45;15.40;99.90
43862;DHT22;29510;52.140;5.034;2023-07-22T21:37:46;15.40;99.90
43862;DHT22;29510;52.140;5.034;2023-07-22T21:47:47;15.40;99.90
43862;DHT22;29510;52.140;5.034;2023-07-22T21:57:48;15.50;99.90
43862;DHT22;29510;52.140;5.034;2023-07-22T22:07:50;15.50;99.90
43862;DHT22;29510;52.140;5.034;2023-07-22T22:17:51;15.50;99.90
43862;DHT22;29510;52.140;5.034;2023-07-22T22:27:52;15.50;99.90
43862;DHT22;29510;52.140;5.034;2023-07-22T22:37:53;15.50;99.90
43862;DHT22;29510;52.140;5.034;2023-07-22T22:47:54;15.60;99.90
43862;DHT22;29510;52.140;5.034;2023-07-22T22:57:55;15.60;99.90
43862;DHT22;29510;52.140;5.034;2023-07-22T23:07:56;15.60;99.90
43862;DHT22;29510;52.140;5.034;2023-07-22T23:17:57;15.50;99.90
43862;DHT22;29510;52.140;5.034;2023-07-22T23:28:00;15.50;99.90
43862;DHT22;29510;52.140;5.034;2023-07-22T23:38:01;15.50;99.90
43862;DHT22;29510;52.140;5.034;2023-07-22T23:48:02;15.50;99.90
43862;DHT22;29510;52.140;5.034;2023-07-22T23:58:03;15.50;99.90
